createdAt,value
2023-05-06T00:04:22.204Z,12.80
2023-05-06T00:09:25.125Z,9.10
2023-05-06T00:14:28.070Z,8.60
2023-05-06T00:19:31.344Z,9.60
2023-05-06T00:29:36.851Z,11.20
2023-05-06T00:34:39.713Z,10.70
2023-05-06T00:39:42.561Z,8.80
2023-05-06T00:44:45.403Z,13.30
2023-05-06T00:49:48.420Z,11.90
2023-05-06T00:54:51.378Z,20.40
2023-05-06T00:59:54.693Z,13.80
2023-05-06T01:10:00.341Z,7.30
2023-05-06T01:15:12.005Z,10.10
2023-05-06T01:20:15.570Z,9.90
2023-05-06T01:25:22.443Z,7.80
2023-05-06T01:30:31.871Z,8.90
2023-05-06T01:35:53.665Z,9.20
2023-05-06T01:40:58.475Z,8.60
2023-05-06T01:46:02.512Z,11.00
2023-05-06T01:51:05.639Z,10.10
2023-05-06T01:56:09.258Z,11.40
2023-05-06T02:01:12.097Z,9.30
2023-05-06T02:06:14.908Z,13.10
2023-05-06T02:11:17.883Z,8.30
2023-05-06T02:16:22.160Z,12.50
2023-05-06T02:21:25.087Z,11.50
2023-05-06T02:26:27.932Z,10.80
2023-05-06T02:31:32.175Z,9.70
2023-05-06T02:36:34.991Z,18.50
2023-05-06T02:41:37.749Z,7.30
2023-05-06T02:46:40.579Z,8.80
2023-05-06T02:51:43.468Z,10.20
2023-05-06T02:56:46.521Z,7.50
2023-05-06T03:01:49.720Z,13.30
2023-05-06T03:06:52.520Z,8.90
2023-05-06T03:11:56.927Z,7.20
2023-05-06T03:16:59.892Z,8.50
2023-05-06T03:22:03.103Z,6.30
2023-05-06T03:27:05.942Z,9.10
2023-05-06T03:32:08.832Z,10.60
2023-05-06T03:37:11.730Z,10.40
2023-05-06T03:42:14.867Z,7.90
2023-05-06T03:47:17.781Z,11.20
2023-05-06T03:52:21.143Z,10.10
2023-05-06T03:57:24.065Z,8.90
2023-05-06T04:02:27.039Z,7.80
2023-05-06T04:07:31.273Z,9.90
2023-05-06T04:12:34.411Z,7.60
2023-05-06T04:17:37.231Z,9.30
2023-05-06T04:22:40.096Z,6.70
2023-05-06T04:27:42.881Z,6.20
2023-05-06T04:32:46.206Z,8.40
2023-05-06T04:42:52.507Z,12.10
2023-05-06T04:47:55.526Z,7.90
2023-05-06T04:52:58.341Z,8.50
2023-05-06T04:58:01.132Z,6.20
2023-05-06T05:03:04.148Z,10.50
2023-05-06T05:08:07.075Z,8.40
2023-05-06T05:13:10.068Z,6.10
2023-05-06T05:18:13.192Z,6.80
2023-05-06T05:23:16.333Z,9.20
2023-05-06T05:28:19.155Z,7.40
2023-05-06T05:33:22.011Z,7.50
2023-05-06T05:38:24.964Z,7.60
2023-05-06T05:43:27.775Z,7.90
2023-05-06T05:48:32.800Z,7.10
2023-05-06T05:53:35.722Z,9.40
2023-05-06T05:58:38.802Z,7.90
2023-05-06T06:03:42.192Z,9.30
2023-05-06T06:08:45.243Z,4.60
2023-05-06T06:13:48.051Z,6.20
2023-05-06T06:18:51.137Z,11.30
2023-05-06T06:23:53.919Z,10.80
2023-05-06T06:28:56.737Z,6.60
2023-05-06T06:33:59.545Z,8.10
2023-05-06T06:39:02.398Z,10.10
2023-05-06T06:44:06.146Z,8.20
2023-05-06T06:49:08.956Z,7.00
2023-05-06T06:54:11.760Z,8.90
2023-05-06T06:59:14.830Z,9.20
2023-05-06T07:04:17.695Z,8.40
2023-05-06T07:09:20.620Z,9.50
2023-05-06T07:14:23.427Z,7.10
2023-05-06T07:19:26.567Z,8.10
2023-05-06T07:29:32.189Z,7.80
2023-05-06T07:34:36.211Z,8.40
2023-05-06T07:39:39.044Z,7.30
2023-05-06T07:44:41.817Z,6.90
2023-05-06T07:49:44.673Z,9.60
2023-05-06T07:54:47.561Z,6.90
2023-05-06T07:59:51.662Z,7.50
2023-05-06T08:04:54.601Z,8.70
2023-05-06T08:09:57.922Z,7.40
2023-05-06T08:15:00.963Z,6.90
2023-05-06T08:20:04.047Z,7.90
2023-05-06T08:25:07.426Z,11.80
2023-05-06T08:30:10.933Z,11.40
2023-05-06T08:35:14.092Z,8.30
2023-05-06T08:40:22.090Z,6.70
2023-05-06T08:45:27.405Z,10.30
2023-05-06T08:50:33.462Z,15.90
2023-05-06T08:55:37.340Z,7.30
2023-05-06T09:00:40.587Z,6.80
2023-05-06T09:05:43.571Z,6.60
2023-05-06T09:10:47.470Z,5.40
2023-05-06T09:15:54.461Z,8.30
2023-05-06T09:20:59.393Z,8.80
2023-05-06T09:26:03.742Z,14.10
2023-05-06T09:31:07.132Z,5.80
2023-05-06T09:36:13.481Z,6.60
2023-05-06T09:41:21.148Z,9.30
2023-05-06T09:46:25.519Z,9.10
2023-05-06T09:51:28.696Z,8.20
2023-05-06T09:56:31.990Z,7.10
2023-05-06T10:01:37.585Z,8.00
2023-05-06T10:06:41.066Z,11.90
2023-05-06T10:11:45.569Z,7.40
2023-05-06T10:16:49.645Z,8.50
2023-05-06T10:22:04.444Z,7.40
2023-05-06T10:27:12.261Z,9.70
2023-05-06T10:32:17.467Z,5.70
2023-05-06T10:37:25.989Z,10.00
2023-05-06T10:42:34.103Z,11.30
2023-05-06T10:47:56.098Z,9.20
2023-05-06T10:52:59.314Z,9.50
2023-05-06T10:58:12.711Z,7.60
2023-05-06T11:03:23.845Z,6.20
2023-05-06T11:08:27.302Z,6.80
2023-05-06T11:13:35.153Z,6.50
2023-05-06T11:18:41.714Z,9.30
2023-05-06T11:23:54.821Z,6.90
2023-05-06T11:29:06.041Z,11.10
2023-05-06T11:34:11.447Z,10.60
2023-05-06T11:39:14.618Z,13.70
2023-05-06T11:44:25.443Z,11.00
2023-05-06T11:49:28.360Z,13.90
2023-05-06T11:54:36.986Z,12.70
2023-05-06T11:59:41.285Z,14.90
2023-05-06T12:04:50.233Z,6.50
2023-05-06T12:09:53.379Z,16.30
2023-05-06T12:14:56.721Z,8.70
2023-05-06T12:19:59.860Z,9.80
2023-05-06T12:25:14.253Z,17.60
2023-05-06T12:30:29.309Z,10.80
2023-05-06T12:35:32.711Z,13.00
2023-05-06T12:40:36.090Z,12.70
2023-05-06T12:45:39.970Z,7.80
2023-05-06T12:50:45.031Z,5.80
2023-05-06T12:55:47.840Z,7.30
2023-05-06T13:05:53.520Z,12.80
2023-05-06T13:10:56.499Z,10.60
2023-05-06T13:15:59.532Z,12.60
2023-05-06T13:21:02.453Z,13.50
2023-05-06T13:26:06.235Z,10.40
2023-05-06T13:31:09.366Z,37.00
2023-05-06T13:36:12.259Z,10.30
2023-05-06T13:46:17.885Z,10.80
2023-05-06T13:51:20.980Z,9.30
2023-05-06T13:56:23.817Z,12.10
2023-05-06T14:06:29.510Z,15.40
2023-05-06T14:11:32.341Z,9.50
2023-05-06T14:16:35.272Z,12.40
2023-05-06T14:26:41.520Z,12.00
2023-05-06T14:31:45.354Z,9.10
2023-05-06T14:36:48.164Z,9.70
2023-05-06T14:41:51.243Z,12.90
2023-05-06T14:46:54.046Z,11.40
2023-05-06T14:51:58.034Z,15.30
2023-05-06T14:57:03.181Z,10.40
2023-05-06T15:02:09.300Z,12.90
2023-05-06T15:07:12.427Z,13.70
2023-05-06T15:12:15.436Z,12.70
2023-05-06T15:17:18.287Z,14.80
2023-05-06T15:27:23.847Z,8.80
2023-05-06T15:37:29.840Z,10.80
2023-05-06T15:42:32.673Z,12.10
2023-05-06T15:47:35.502Z,10.50
2023-05-06T15:52:38.365Z,13.80
2023-05-06T15:57:43.235Z,8.30
2023-05-06T16:02:46.444Z,14.30
2023-05-06T16:07:49.823Z,14.90
2023-05-06T16:12:54.094Z,21.90
2023-05-06T16:17:57.092Z,18.10
2023-05-06T16:28:03.645Z,14.00
2023-05-06T16:33:06.644Z,9.10
2023-05-06T16:43:12.313Z,20.20
2023-05-06T16:48:16.032Z,16.50
2023-05-06T16:53:19.031Z,14.00
2023-05-06T17:03:24.827Z,19.50
2023-05-06T17:13:30.658Z,16.10
2023-05-06T17:18:33.532Z,10.70
2023-05-06T17:23:36.449Z,18.50
2023-05-06T17:28:39.300Z,18.60
2023-05-06T17:33:42.142Z,20.60
2023-05-06T17:38:45.271Z,24.40
2023-05-06T17:48:50.848Z,39.50
2023-05-06T17:53:57.677Z,42.60
2023-05-06T17:59:14.676Z,44.10
2023-05-06T18:04:18.620Z,30.70
2023-05-06T18:09:21.830Z,31.20
2023-05-06T18:14:24.781Z,24.30
2023-05-06T18:19:27.689Z,29.80
2023-05-06T18:24:30.996Z,31.10
2023-05-06T18:29:34.935Z,33.60
2023-05-06T18:34:37.728Z,25.10
2023-05-06T18:39:45.533Z,21.50
2023-05-06T18:44:50.481Z,16.50
2023-05-06T18:49:53.535Z,15.20
2023-05-06T18:54:56.444Z,13.20
2023-05-06T18:59:59.292Z,15.90
2023-05-06T19:05:02.183Z,12.60
2023-05-06T19:10:11.504Z,19.30
2023-05-06T19:15:14.731Z,16.10
2023-05-06T19:20:17.668Z,16.40
2023-05-06T19:25:20.978Z,20.50
2023-05-06T19:30:23.794Z,25.60
2023-05-06T19:35:26.893Z,22.20
2023-05-06T19:40:29.706Z,21.80
2023-05-06T19:45:33.886Z,24.70
2023-05-06T19:50:36.824Z,24.20
2023-05-06T19:55:39.663Z,24.20
2023-05-06T20:00:42.556Z,27.00
2023-05-06T20:05:45.433Z,30.30
2023-05-06T20:10:48.536Z,28.10
2023-05-06T20:15:51.366Z,30.10
2023-05-06T20:20:54.187Z,22.50
2023-05-06T20:25:57.199Z,19.60
2023-05-06T20:31:00.144Z,47.80
2023-05-06T20:36:04.077Z,53.40
2023-05-06T20:41:07.092Z,51.10
2023-05-06T20:46:10.484Z,32.80
2023-05-06T20:51:13.684Z,26.90
2023-05-06T20:56:22.902Z,23.50
2023-05-06T21:01:27.273Z,23.80
2023-05-06T21:06:30.384Z,22.70
2023-05-06T21:11:33.248Z,21.90
2023-05-06T21:16:36.117Z,26.80
2023-05-06T21:21:38.967Z,22.70
2023-05-06T21:26:41.866Z,21.80
2023-05-06T21:31:44.685Z,17.80
2023-05-06T21:36:47.509Z,18.70
2023-05-06T21:41:50.360Z,15.50
2023-05-06T21:46:53.208Z,18.70
2023-05-06T21:51:56.442Z,18.00
2023-05-06T22:02:03.382Z,25.60
2023-05-06T22:07:07.185Z,16.80
2023-05-06T22:12:11.819Z,19.40
2023-05-06T22:17:15.790Z,17.00
2023-05-06T22:22:18.687Z,16.20
2023-05-06T22:27:21.563Z,16.00
2023-05-06T22:32:24.426Z,17.90
2023-05-06T22:37:27.377Z,23.70
2023-05-06T22:42:30.147Z,19.80
2023-05-06T22:47:33.030Z,18.50
2023-05-06T22:52:35.931Z,15.20
2023-05-06T22:57:38.780Z,15.30
2023-05-06T23:02:41.731Z,32.20
2023-05-06T23:07:44.649Z,23.20
2023-05-06T23:12:47.522Z,21.90
2023-05-06T23:17:50.499Z,18.50
2023-05-06T23:22:53.417Z,12.30
2023-05-06T23:27:56.319Z,15.40
2023-05-06T23:32:59.219Z,15.80
2023-05-06T23:38:02.085Z,13.80
2023-05-06T23:43:09.994Z,16.80
2023-05-06T23:48:12.904Z,12.80
2023-05-06T23:53:15.874Z,13.60
2023-05-06T23:58:18.706Z,13.50
